Time;durP1;ratioP1;P1;durP2;ratioP2;P2;SDS_P1;SDS_P2;PMS_P1;PMS_P2;Temp;Humidity;BMP_temperature;BMP_pressure;BME280_temperature;BME280_humidity;BME280_pressure;Samples;Min_cycle;Max_cycle;Signal;HPM_P1;HPM_P2
2022/12/25 00:02:00;;;;;;;41.33;20.37;;;13.50;62.50;;;;;;4884957;29;20479;-85
2022/12/25 00:04:27;;;;;;;43.20;20.83;;;13.50;62.30;;;;;;4901102;29;20451;-86
2022/12/25 00:06:54;;;;;;;49.80;20.67;;;13.50;62.30;;;;;;4884460;29;20500;-81
2022/12/25 00:09:21;;;;;;;36.33;18.90;;;13.60;61.90;;;;;;4912659;29;20583;-87
2022/12/25 00:11:48;;;;;;;27.60;13.63;;;13.60;61.60;;;;;;4920521;29;20818;-86
2022/12/25 00:14:17;;;;;;;21.07;11.87;;;13.60;61.40;;;;;;4913562;29;20462;-85
2022/12/25 00:16:44;;;;;;;29.90;15.73;;;13.60;61.40;;;;;;4889726;29;20550;-86
2022/12/25 00:19:11;;;;;;;26.37;14.03;;;13.40;62.50;;;;;;4887973;29;20868;-86
2022/12/25 00:21:38;;;;;;;20.50;12.67;;;13.40;62.50;;;;;;4887367;29;20679;-86
2022/12/25 00:24:05;;;;;;;35.30;13.00;;;13.50;62.30;;;;;;4916798;29;20482;-87
2022/12/25 00:26:32;;;;;;;19.80;11.40;;;13.50;62.40;;;;;;4921780;29;20482;-85
2022/12/25 00:28:59;;;;;;;24.93;11.93;;;13.50;62.20;;;;;;4886435;29;20555;-89
2022/12/25 00:31:27;;;;;;;25.57;12.93;;;13.50;62.10;;;;;;4907977;29;20538;-85
2022/12/25 00:33:54;;;;;;;23.40;13.00;;;13.40;62.90;;;;;;4899016;29;20457;-88
2022/12/25 00:36:23;;;;;;;21.47;10.90;;;13.40;62.60;;;;;;4924279;29;20478;-86
2022/12/25 00:38:50;;;;;;;20.53;12.50;;;13.50;62.30;;;;;;4876527;29;20855;-85
2022/12/25 00:42:17;;;;;;;20.73;11.60;;;13.60;62.10;;;;;;4920418;29;20559;-86
2022/12/25 00:44:08;;;;;;;17.23;10.23;;;13.50;62.40;;;;;;4914293;29;20446;-86
2022/12/25 00:46:36;;;;;;;17.03;9.23;;;13.50;62.10;;;;;;4891405;29;20731;-86
2022/12/25 00:49:03;;;;;;;22.67;9.67;;;13.50;62.00;;;;;;4894302;29;20463;-87
2022/12/25 00:51:30;;;;;;;14.93;8.20;;;13.50;62.10;;;;;;4876159;29;20833;-86
2022/12/25 00:53:57;;;;;;;18.03;9.07;;;13.50;61.90;;;;;;4872738;29;20793;-85
2022/12/25 00:56:25;;;;;;;14.53;8.00;;;13.50;62.10;;;;;;4915016;29;20466;-85
2022/12/25 00:58:52;;;;;;;13.47;9.07;;;13.40;62.80;;;;;;4898581;29;20451;-87
2022/12/25 01:01:18;;;;;;;14.13;8.50;;;13.50;62.70;;;;;;4917031;29;20857;-87
2022/12/25 01:03:47;;;;;;;15.03;8.83;;;13.50;62.90;;;;;;4875821;29;20713;-89
2022/12/25 01:06:14;;;;;;;19.17;8.40;;;13.50;62.80;;;;;;4891332;29;21011;-86
2022/12/25 01:10:21;;;;;;;11.63;8.47;;;13.60;62.70;;;;;;4874557;29;20451;-87
2022/12/25 01:11:29;;;;;;;14.33;7.90;;;13.60;62.30;;;;;;4902049;29;20995;-88
2022/12/25 01:13:57;;;;;;;14.43;8.30;;;13.60;62.10;;;;;;4899396;29;20857;-85
2022/12/25 01:16:24;;;;;;;9.63;7.10;;;13.60;63.00;;;;;;4906481;29;20478;-86
2022/12/25 01:18:52;;;;;;;14.33;8.67;;;13.60;62.10;;;;;;4914829;29;20852;-87
2022/12/25 01:21:20;;;;;;;19.40;8.67;;;13.70;62.00;;;;;;4897048;29;20460;-85
2022/12/25 01:23:48;;;;;;;11.67;8.07;;;13.60;61.80;;;;;;4897413;29;20471;-86
2022/12/25 01:26:16;;;;;;;13.53;8.77;;;13.70;61.80;;;;;;4869432;29;20825;-86
2022/12/25 01:28:43;;;;;;;12.60;7.73;;;13.60;62.40;;;;;;4905673;29;20957;-86
2022/12/25 01:31:12;;;;;;;14.43;8.17;;;13.50;62.30;;;;;;4875144;29;20460;-86
2022/12/25 01:33:40;;;;;;;12.80;9.33;;;13.40;62.30;;;;;;4916415;29;20812;-86
2022/12/25 01:36:14;;;;;;;14.87;9.20;;;13.30;62.50;;;;;;4907526;29;20836;-86
2022/12/25 01:38:42;;;;;;;15.70;9.53;;;13.20;62.90;;;;;;4927226;28;20800;-86
2022/12/25 01:41:09;;;;;;;19.73;9.40;;;13.30;62.70;;;;;;4890464;29;20481;-85
2022/12/25 01:43:55;;;;;;;15.53;8.67;;;13.40;62.40;;;;;;4869387;29;20470;-88
2022/12/25 01:46:22;;;;;;;14.90;7.40;;;13.40;61.90;;;;;;4888928;29;20515;-88
2022/12/25 01:48:49;;;;;;;15.80;7.37;;;13.30;62.30;;;;;;4900347;29;20826;-85
2022/12/25 01:51:26;;;;;;;12.07;7.90;;;13.10;63.20;;;;;;4899020;29;20489;-87
2022/12/25 01:53:54;;;;;;;24.83;8.70;;;13.00;63.70;;;;;;4896813;29;20831;-85
2022/12/25 01:56:21;;;;;;;12.10;8.50;;;12.90;64.00;;;;;;4912751;29;20967;-83
2022/12/25 01:58:49;;;;;;;14.63;9.70;;;12.80;64.30;;;;;;4876016;29;20462;-88
2022/12/25 02:01:16;;;;;;;19.03;9.60;;;12.90;63.80;;;;;;4926256;28;20846;-88
2022/12/25 02:03:43;;;;;;;14.50;8.60;;;12.80;64.00;;;;;;4890935;29;20533;-85
2022/12/25 02:06:10;;;;;;;13.03;8.40;;;12.80;64.10;;;;;;4885767;29;20781;-86
2022/12/25 02:08:40;;;;;;;13.97;8.67;;;12.90;64.30;;;;;;4926525;29;21064;-87
2022/12/25 02:11:55;;;;;;;20.00;7.70;;;12.80;63.80;;;;;;4888807;29;20885;-86
2022/12/25 02:13:57;;;;;;;12.67;7.10;;;13.00;63.50;;;;;;4913529;29;20962;-86
2022/12/25 02:16:27;;;;;;;12.37;7.37;;;13.10;63.00;;;;;;4907674;29;20468;-86
2022/12/25 02:18:59;;;;;;;11.30;7.60;;;13.20;62.80;;;;;;4889695;29;21055;-85
2022/12/25 02:21:47;;;;;;;11.57;7.00;;;13.10;63.30;;;;;;4900156;29;20460;-86
2022/12/25 02:24:36;;;;;;;12.13;6.13;;;13.10;62.80;;;;;;4899237;29;20497;-88
2022/12/25 02:27:11;;;;;;;10.70;5.57;;;13.10;62.80;;;;;;4910679;29;20452;-86
2022/12/25 02:29:49;;;;;;;22.70;12.30;;;13.10;62.90;;;;;;4880278;29;20499;-86
2022/12/25 02:32:24;;;;;;;19.73;12.97;;;13.20;62.60;;;;;;4914274;29;20459;-86
2022/12/25 02:34:55;;;;;;;15.80;7.93;;;13.20;62.40;;;;;;4875250;29;20485;-88
2022/12/25 02:37:28;;;;;;;13.20;6.43;;;13.20;63.20;;;;;;4928192;28;20550;-84
2022/12/25 02:40:00;;;;;;;12.80;5.73;;;13.30;62.00;;;;;;4900541;29;20479;-85
2022/12/25 03:07:59;;;;;;;8.90;5.27;;;12.90;60.90;;;;;;4918072;29;21019;-86
2022/12/25 03:13:15;;;;;;;4.50;3.47;;;12.90;60.30;;;;;;4906035;29;20524;-86
2022/12/25 03:18:31;;;;;;;7.50;3.50;;;12.90;60.60;;;;;;4914084;29;21049;-88
2022/12/25 03:31:10;;;;;;;9.43;4.33;;;12.90;60.70;;;;;;4893927;29;20447;-85
2022/12/25 03:32:08;;;;;;;7.97;3.37;;;12.70;60.90;;;;;;4900875;29;20836;-86
2022/12/25 04:36:41;;;;;;;9.03;5.00;;;12.00;61.60;;;;;;4903278;29;20475;-86
2022/12/25 04:39:09;;;;;;;7.47;3.73;;;12.20;61.30;;;;;;4930384;29;20459;-86
2022/12/25 04:41:38;;;;;;;6.70;3.90;;;12.20;61.10;;;;;;4892973;29;20458;-85
2022/12/25 04:44:05;;;;;;;6.10;4.30;;;12.20;60.90;;;;;;4914282;29;20478;-88
2022/12/25 04:46:32;;;;;;;4.80;3.23;;;12.20;61.00;;;;;;4912577;29;20850;-88
2022/12/25 04:48:58;;;;;;;13.07;5.40;;;12.20;60.80;;;;;;4884943;29;20457;-87
2022/12/25 04:51:26;;;;;;;7.33;5.00;;;12.20;61.00;;;;;;4910852;29;20479;-88
2022/12/25 04:53:54;;;;;;;9.90;6.23;;;12.10;61.70;;;;;;4900428;29;20840;-86
2022/12/25 04:56:21;;;;;;;15.03;5.80;;;12.20;61.50;;;;;;4902497;29;20470;-85
2022/12/25 04:58:50;;;;;;;9.83;6.30;;;12.10;62.50;;;;;;4913408;29;20451;-86
2022/12/25 05:01:17;;;;;;;5.60;4.67;;;11.90;62.10;;;;;;4913854;29;20537;-85
2022/12/25 05:03:44;;;;;;;7.53;5.20;;;11.90;61.70;;;;;;4900753;29;20483;-85
2022/12/25 05:06:11;;;;;;;11.20;5.90;;;11.90;61.90;;;;;;4915761;29;20791;-85
2022/12/25 05:08:38;;;;;;;12.13;5.00;;;11.90;61.60;;;;;;4890201;29;20448;-88
2022/12/25 05:11:06;;;;;;;7.07;4.57;;;11.90;61.10;;;;;;4930603;28;20540;-86
2022/12/25 05:13:33;;;;;;;6.83;4.97;;;11.80;61.10;;;;;;4890909;29;20806;-87
2022/12/25 05:16:05;;;;;;;8.00;5.90;;;11.80;61.60;;;;;;4914948;29;20973;-86
2022/12/25 05:18:31;;;;;;;18.07;6.33;;;11.90;61.80;;;;;;4905443;29;20466;-87
2022/12/25 05:20:58;;;;;;;9.73;5.33;;;11.50;62.50;;;;;;4905955;29;20470;-86
2022/12/25 05:23:25;;;;;;;9.10;6.30;;;11.30;64.30;;;;;;4879374;29;20477;-88
2022/12/25 05:25:52;;;;;;;10.93;7.20;;;11.10;64.90;;;;;;4892915;29;20470;-85
2022/12/25 05:28:19;;;;;;;8.80;5.57;;;11.30;65.10;;;;;;4897633;29;20460;-86
2022/12/25 05:30:46;;;;;;;9.40;6.00;;;11.40;64.60;;;;;;4918372;29;20596;-86
2022/12/25 05:33:15;;;;;;;9.53;5.50;;;11.70;63.80;;;;;;4913528;29;20458;-87
2022/12/25 05:35:41;;;;;;;16.50;7.97;;;11.90;63.10;;;;;;4894809;29;20475;-86
2022/12/25 05:38:09;;;;;;;9.60;5.87;;;12.00;62.70;;;;;;4894728;29;20459;-85
2022/12/25 05:40:39;;;;;;;6.80;5.30;;;12.00;62.10;;;;;;4909664;29;20828;-88
2022/12/25 05:43:06;;;;;;;8.00;5.83;;;11.60;63.90;;;;;;4892395;29;20478;-81
2022/12/25 05:45:33;;;;;;;7.90;5.90;;;11.60;64.10;;;;;;4934653;28;20480;-85
2022/12/25 05:48:00;;;;;;;10.87;7.23;;;11.40;64.20;;;;;;4888116;29;20463;-85
2022/12/25 05:50:29;;;;;;;8.80;6.30;;;11.20;65.00;;;;;;4887116;29;20454;-84
2022/12/25 05:53:04;;;;;;;6.50;5.30;;;11.30;64.40;;;;;;4906121;29;20443;-81
2022/12/25 05:55:33;;;;;;;11.00;6.60;;;11.40;64.80;;;;;;4886248;29;20566;-82
2022/12/25 05:58:00;;;;;;;9.07;5.60;;;11.50;64.90;;;;;;4920491;29;20487;-85
2022/12/25 06:00:28;;;;;;;11.97;5.70;;;11.50;65.30;;;;;;4889517;29;20471;-83
2022/12/25 06:02:55;;;;;;;8.03;5.70;;;11.60;64.40;;;;;;4923878;29;20452;-86
2022/12/25 06:05:22;;;;;;;13.90;5.53;;;11.80;63.60;;;;;;4906086;29;20474;-85
2022/12/25 06:07:50;;;;;;;9.57;6.07;;;11.80;62.80;;;;;;4926238;29;20454;-86
2022/12/25 06:10:17;;;;;;;10.90;6.27;;;11.60;63.10;;;;;;4918377;29;20478;-84
2022/12/25 06:12:44;;;;;;;11.60;6.10;;;11.40;63.70;;;;;;4891176;29;20448;-85
2022/12/25 06:15:11;;;;;;;16.33;6.97;;;11.60;63.80;;;;;;4913079;29;20539;-85
2022/12/25 06:17:38;;;;;;;15.30;8.20;;;11.40;63.60;;;;;;4910346;29;20459;-85
2022/12/25 06:20:06;;;;;;;11.10;7.60;;;11.10;64.70;;;;;;4882834;29;20459;-85
2022/12/25 06:22:34;;;;;;;12.70;7.23;;;11.00;65.00;;;;;;4917204;29;20806;-86
2022/12/25 06:25:02;;;;;;;8.80;6.90;;;10.90;65.20;;;;;;4927071;29;20514;-84
2022/12/25 06:27:29;;;;;;;10.73;6.20;;;10.80;66.40;;;;;;4926385;29;20458;-84
2022/12/25 06:29:56;;;;;;;9.80;5.73;;;10.80;67.30;;;;;;4939312;29;20458;-85
2022/12/25 06:32:23;;;;;;;10.27;6.27;;;11.20;65.70;;;;;;4894239;29;20837;-84
2022/12/25 06:34:50;;;;;;;11.07;7.17;;;11.30;65.10;;;;;;4881785;29;20480;-86
2022/12/25 06:37:17;;;;;;;14.07;6.97;;;11.10;64.80;;;;;;4897121;29;20470;-87
2022/12/25 06:39:44;;;;;;;10.97;6.63;;;11.30;64.70;;;;;;4894196;29;20838;-84
2022/12/25 06:42:13;;;;;;;9.30;6.70;;;11.60;64.10;;;;;;4891300;29;20984;-85
2022/12/25 06:44:40;;;;;;;9.90;6.87;;;11.70;63.30;;;;;;4888203;29;21023;-85
2022/12/25 06:47:07;;;;;;;9.20;7.00;;;11.60;63.50;;;;;;4889894;29;20490;-86
2022/12/25 06:49:35;;;;;;;19.50;9.47;;;11.60;63.60;;;;;;4905550;29;21072;-84
2022/12/25 06:52:02;;;;;;;13.43;9.03;;;11.20;64.10;;;;;;4912465;29;20554;-82
2022/12/25 06:54:30;;;;;;;14.57;8.10;;;11.20;64.60;;;;;;4917918;29;20444;-88
2022/12/25 06:56:57;;;;;;;12.37;7.60;;;11.20;64.80;;;;;;4922880;29;20462;-85
2022/12/25 06:59:25;;;;;;;14.73;8.63;;;11.30;64.70;;;;;;4915973;29;20934;-83
2022/12/25 07:01:55;;;;;;;17.83;9.40;;;11.50;64.80;;;;;;4909942;29;20450;-86
2022/12/25 07:04:30;;;;;;;21.10;12.13;;;11.60;64.40;;;;;;4895182;29;20472;-85
2022/12/25 07:06:57;;;;;;;21.67;14.17;;;11.60;64.20;;;;;;4934980;28;21098;-87
2022/12/25 07:09:24;;;;;;;16.10;11.50;;;11.60;64.20;;;;;;4903940;29;20463;-84
2022/12/25 07:11:51;;;;;;;24.23;12.83;;;11.50;64.50;;;;;;4912781;29;20545;-87
2022/12/25 07:14:20;;;;;;;15.53;8.97;;;11.50;64.20;;;;;;4873967;29;20937;-88
2022/12/25 07:16:49;;;;;;;25.20;11.63;;;11.40;64.20;;;;;;4904580;29;20874;-86
2022/12/25 07:19:16;;;;;;;14.00;9.33;;;11.50;64.20;;;;;;4891976;29;20470;-84
2022/12/25 07:21:43;;;;;;;12.40;8.87;;;11.70;63.60;;;;;;4911019;29;20451;-84
2022/12/25 07:24:10;;;;;;;10.03;7.40;;;11.80;62.90;;;;;;4907883;29;20474;-85
2022/12/25 07:26:37;;;;;;;18.13;6.70;;;11.90;62.70;;;;;;4894771;29;20478;-84
2022/12/25 07:29:04;;;;;;;8.53;6.27;;;12.00;62.60;;;;;;4915016;29;20459;-84
2022/12/25 07:31:31;;;;;;;7.90;5.83;;;12.00;62.50;;;;;;4905732;29;20553;-84
2022/12/25 07:33:59;;;;;;;9.37;5.63;;;11.90;63.10;;;;;;4893272;29;20454;-85
2022/12/25 07:36:26;;;;;;;9.10;6.27;;;11.80;63.10;;;;;;4889566;29;20479;-83
2022/12/25 07:38:54;;;;;;;10.27;7.30;;;11.90;63.10;;;;;;4892945;29;20452;-85
2022/12/25 07:41:21;;;;;;;13.33;7.70;;;12.00;62.70;;;;;;4874975;29;20452;-86
2022/12/25 07:43:50;;;;;;;11.20;6.60;;;12.00;62.20;;;;;;4875111;29;20471;-85
2022/12/25 07:46:17;;;;;;;9.70;5.80;;;12.00;62.40;;;;;;4909249;29;20470;-86
2022/12/25 07:48:44;;;;;;;8.20;6.53;;;12.00;62.50;;;;;;4884750;29;21419;-84
2022/12/25 07:51:14;;;;;;;8.97;6.30;;;11.90;63.20;;;;;;4882501;29;20961;-86
2022/12/25 07:53:42;;;;;;;10.63;7.13;;;11.80;63.50;;;;;;4920474;29;20443;-85
2022/12/25 07:56:12;;;;;;;13.53;8.97;;;11.80;63.70;;;;;;4896373;29;21032;-86
2022/12/25 07:58:39;;;;;;;15.07;9.13;;;11.80;63.40;;;;;;4919261;29;20464;-84
2022/12/25 08:01:09;;;;;;;11.03;7.73;;;11.60;63.20;;;;;;4878471;29;20471;-87
2022/12/25 08:03:37;;;;;;;16.97;10.37;;;11.60;63.90;;;;;;4916437;29;20466;-84
2022/12/25 08:06:05;;;;;;;39.43;24.80;;;11.20;64.80;;;;;;4906050;29;20486;-84
2022/12/25 08:08:34;;;;;;;25.30;18.60;;;11.30;65.60;;;;;;4908628;29;20468;-85
2022/12/25 08:11:01;;;;;;;19.17;11.90;;;11.60;65.10;;;;;;4906141;29;20458;-89
2022/12/25 08:13:30;;;;;;;24.50;12.43;;;11.60;65.10;;;;;;4934029;28;20452;-86
2022/12/25 08:15:57;;;;;;;19.13;11.03;;;11.60;65.10;;;;;;4917460;29;20484;-85
2022/12/25 08:18:24;;;;;;;17.87;11.40;;;11.70;64.90;;;;;;4895837;29;20470;-87
2022/12/25 08:20:51;;;;;;;13.53;10.57;;;11.60;65.20;;;;;;4886472;29;20458;-85
2022/12/25 08:23:18;;;;;;;17.47;10.63;;;11.70;65.00;;;;;;4900563;29;20460;-85
2022/12/25 08:25:46;;;;;;;19.23;10.20;;;11.80;65.10;;;;;;4889628;29;20821;-83
2022/12/25 08:28:13;;;;;;;22.30;12.37;;;11.70;66.00;;;;;;4902434;29;20953;-85
2022/12/25 08:30:41;;;;;;;23.63;15.60;;;11.90;65.00;;;;;;4923745;29;20547;-84
2022/12/25 08:33:08;;;;;;;28.30;14.60;;;11.90;64.40;;;;;;4908148;29;20840;-85
2022/12/25 08:35:35;;;;;;;20.67;14.87;;;11.80;64.60;;;;;;4918526;29;20475;-85
2022/12/25 08:38:02;;;;;;;21.60;14.97;;;11.80;64.80;;;;;;4885554;29;20479;-85
2022/12/25 08:40:29;;;;;;;18.47;12.47;;;11.70;64.80;;;;;;4907419;29;21045;-83
2022/12/25 08:42:58;;;;;;;17.07;9.80;;;11.60;65.50;;;;;;4896694;29;20459;-83
2022/12/25 08:45:24;;;;;;;24.47;15.50;;;11.70;65.00;;;;;;4901513;29;20480;-84
2022/12/25 08:47:54;;;;;;;23.27;11.07;;;11.90;64.50;;;;;;4900398;29;20466;-84
2022/12/25 08:50:21;;;;;;;11.80;8.43;;;11.90;64.80;;;;;;4902479;29;20448;-85
2022/12/25 08:52:48;;;;;;;12.70;9.87;;;11.80;64.90;;;;;;4909206;29;20976;-83
2022/12/25 08:55:15;;;;;;;14.37;8.80;;;11.50;65.60;;;;;;4885837;29;20986;-84
2022/12/25 08:57:42;;;;;;;9.60;8.60;;;11.80;65.20;;;;;;4871766;29;20459;-84
2022/12/25 09:00:11;;;;;;;11.53;8.33;;;12.10;64.40;;;;;;4909796;29;20515;-85
2022/12/25 09:02:38;;;;;;;11.23;9.00;;;12.10;63.80;;;;;;4887525;29;20957;-85
2022/12/25 09:05:06;;;;;;;13.43;10.13;;;12.00;64.40;;;;;;4904052;29;20488;-85
2022/12/25 09:07:33;;;;;;;34.17;20.47;;;12.00;64.20;;;;;;4915539;29;20972;-84
2022/12/25 09:10:00;;;;;;;14.63;11.50;;;12.20;64.10;;;;;;4889089;29;20899;-85
2022/12/25 09:12:27;;;;;;;19.53;13.00;;;12.40;63.80;;;;;;4896568;29;20463;-85
2022/12/25 09:14:54;;;;;;;16.77;11.10;;;12.30;63.20;;;;;;4899789;29;21024;-85
2022/12/25 09:17:22;;;;;;;15.07;13.50;;;12.10;64.20;;;;;;4889955;29;20531;-84
2022/12/25 09:19:49;;;;;;;19.83;14.57;;;11.80;64.90;;;;;;4926390;28;20477;-86
2022/12/25 09:22:16;;;;;;;17.43;14.00;;;11.70;65.30;;;;;;4914628;29;20833;-86
2022/12/25 09:24:43;;;;;;;20.80;14.97;;;11.80;65.40;;;;;;4917955;29;20841;-87
2022/12/25 09:27:10;;;;;;;29.57;18.07;;;12.00;64.80;;;;;;4912900;29;20895;-86
2022/12/25 09:29:37;;;;;;;31.53;18.30;;;12.00;64.50;;;;;;4877634;29;20492;-87
2022/12/25 09:32:05;;;;;;;30.10;17.30;;;12.00;64.10;;;;;;4887711;29;20459;-84
2022/12/25 09:34:34;;;;;;;14.67;11.60;;;12.10;64.40;;;;;;4917689;29;20458;-85
2022/12/25 09:37:01;;;;;;;14.40;10.20;;;12.10;64.40;;;;;;4903286;29;20454;-84
2022/12/25 09:39:28;;;;;;;14.30;8.63;;;11.90;64.50;;;;;;4879392;29;20504;-85
2022/12/25 09:42:00;;;;;;;11.50;9.00;;;12.10;64.10;;;;;;4911656;29;20467;-87
2022/12/25 09:44:30;;;;;;;13.07;8.63;;;11.90;64.30;;;;;;4930604;29;20472;-85
2022/12/25 09:47:01;;;;;;;12.03;8.10;;;11.70;65.40;;;;;;4899944;29;20452;-86
2022/12/25 09:49:37;;;;;;;16.90;10.03;;;11.60;66.10;;;;;;4914629;29;20456;-86
2022/12/25 09:52:09;;;;;;;18.40;10.13;;;11.80;65.80;;;;;;4911043;29;20991;-85
2022/12/25 09:54:44;;;;;;;21.77;14.50;;;12.00;65.20;;;;;;4919542;29;20456;-88
2022/12/25 09:57:13;;;;;;;17.70;12.70;;;12.00;65.40;;;;;;4907239;29;20834;-85
2022/12/25 09:59:43;;;;;;;17.83;13.60;;;12.00;65.70;;;;;;4911690;29;20542;-86
2022/12/25 10:02:38;;;;;;;13.57;11.50;;;12.30;65.30;;;;;;4928651;28;21070;-87
2022/12/25 10:05:29;;;;;;;20.97;11.43;;;12.40;64.80;;;;;;4900233;29;20471;-88
2022/12/25 10:08:04;;;;;;;14.13;11.20;;;12.60;64.60;;;;;;4876454;29;20455;-87
2022/12/25 10:10:47;;;;;;;13.27;10.70;;;12.80;64.30;;;;;;4889698;29;20468;-87
2022/12/25 10:13:30;;;;;;;14.53;10.33;;;12.80;64.10;;;;;;4869397;29;20456;-86
2022/12/25 10:16:10;;;;;;;14.30;10.00;;;12.70;64.60;;;;;;4920411;29;20491;-86
2022/12/25 10:18:58;;;;;;;19.23;11.23;;;12.60;65.30;;;;;;4910718;29;20871;-85
2022/12/25 10:21:27;;;;;;;16.60;9.90;;;12.60;65.60;;;;;;4912224;29;20467;-87
2022/12/25 10:24:05;;;;;;;13.80;9.10;;;12.90;65.40;;;;;;4888718;29;20550;-86
2022/12/25 10:26:34;;;;;;;13.20;9.33;;;13.10;65.10;;;;;;4893194;29;20993;-84
2022/12/25 10:29:05;;;;;;;10.60;9.03;;;13.20;64.70;;;;;;4895937;29;20635;-85
2022/12/25 10:31:36;;;;;;;30.53;20.07;;;13.40;64.20;;;;;;4904395;29;20461;-87
2022/12/25 10:34:04;;;;;;;17.67;12.40;;;13.20;64.80;;;;;;4880952;29;20463;-85
2022/12/25 10:36:33;;;;;;;21.07;13.53;;;13.10;64.60;;;;;;4912495;29;20811;-86
2022/12/25 10:39:00;;;;;;;25.17;14.13;;;13.10;65.30;;;;;;4882319;29;20991;-85
2022/12/25 10:41:46;;;;;;;15.10;11.67;;;13.00;65.10;;;;;;4928230;29;20471;-85
2022/12/25 10:44:14;;;;;;;17.40;12.47;;;12.90;65.60;;;;;;4890412;29;20467;-86
2022/12/25 10:46:47;;;;;;;14.83;10.50;;;13.00;66.00;;;;;;4894060;29;20475;-86
2022/12/25 10:49:16;;;;;;;15.60;10.30;;;13.00;66.20;;;;;;4906486;29;20966;-86
2022/12/25 10:51:44;;;;;;;12.80;10.03;;;13.10;65.60;;;;;;4896367;29;20459;-85
2022/12/25 10:54:22;;;;;;;14.27;10.80;;;13.30;65.30;;;;;;4912526;29;20447;-85
2022/12/25 10:56:57;;;;;;;13.03;9.70;;;13.30;64.50;;;;;;4916127;29;20467;-85
2022/12/25 10:59:26;;;;;;;22.83;9.57;;;13.00;65.30;;;;;;4914552;29;20846;-86
2022/12/25 11:01:53;;;;;;;9.77;7.37;;;13.20;65.20;;;;;;4899943;29;20476;-87
2022/12/25 11:04:22;;;;;;;12.60;7.93;;;13.00;65.00;;;;;;4932683;29;20450;-88
2022/12/25 11:06:59;;;;;;;10.67;7.70;;;13.00;65.80;;;;;;4901050;29;20448;-85
2022/12/25 11:09:26;;;;;;;10.87;7.50;;;13.10;65.40;;;;;;4890788;29;20498;-85
2022/12/25 11:11:53;;;;;;;11.10;8.80;;;13.30;65.30;;;;;;4877790;29;20451;-85
2022/12/25 11:14:21;;;;;;;12.50;7.83;;;13.30;65.30;;;;;;4905103;29;20448;-86
2022/12/25 11:16:48;;;;;;;10.10;7.53;;;13.40;64.90;;;;;;4889263;29;20496;-86
2022/12/25 11:19:26;;;;;;;10.57;8.40;;;13.40;64.80;;;;;;4886285;29;20455;-85
2022/12/25 11:21:54;;;;;;;14.00;8.10;;;13.40;64.80;;;;;;4892383;29;20570;-85
2022/12/25 11:24:26;;;;;;;33.03;23.80;;;13.50;64.80;;;;;;4884781;29;20965;-86
2022/12/25 11:26:55;;;;;;;17.13;11.43;;;13.60;64.60;;;;;;4914931;29;20486;-86
2022/12/25 11:29:36;;;;;;;14.83;9.37;;;13.70;64.10;;;;;;4931080;29;20457;-86
2022/12/25 11:32:06;;;;;;;10.13;8.60;;;13.70;64.10;;;;;;4893923;29;20462;-85
2022/12/25 11:34:40;;;;;;;13.23;8.93;;;13.60;64.60;;;;;;4914216;29;20632;-84
2022/12/25 11:37:14;;;;;;;9.77;7.40;;;13.60;64.60;;;;;;4889420;29;20498;-84
2022/12/25 11:39:42;;;;;;;12.90;7.90;;;13.60;64.90;;;;;;4917501;29;20456;-86
2022/12/25 11:42:16;;;;;;;9.20;7.00;;;13.70;64.70;;;;;;4924739;29;21067;-86
2022/12/25 11:44:49;;;;;;;12.30;8.97;;;13.70;64.40;;;;;;4914675;29;20464;-87
2022/12/25 11:47:23;;;;;;;11.63;8.90;;;13.80;64.30;;;;;;4903830;29;20463;-85
2022/12/25 11:49:54;;;;;;;19.47;14.80;;;14.00;64.00;;;;;;4930262;29;20459;-86
2022/12/25 11:52:23;;;;;;;14.00;10.57;;;14.00;63.50;;;;;;4893183;29;20451;-82
2022/12/25 11:54:55;;;;;;;11.80;9.30;;;14.00;64.10;;;;;;4906929;29;20859;-86
2022/12/25 11:57:26;;;;;;;14.13;10.43;;;14.00;64.10;;;;;;4893416;29;20523;-86
2022/12/25 11:59:58;;;;;;;14.33;8.93;;;13.90;63.90;;;;;;4874048;29;20463;-87
2022/12/25 12:02:31;;;;;;;17.13;9.10;;;13.90;64.60;;;;;;4888657;29;20463;-85
2022/12/25 12:05:08;;;;;;;13.63;9.37;;;13.80;65.00;;;;;;4885272;29;20482;-85
2022/12/25 12:07:41;;;;;;;9.50;8.37;;;13.80;64.60;;;;;;4891037;29;21074;-85
2022/12/25 12:10:17;;;;;;;10.10;8.53;;;13.80;64.70;;;;;;4870579;29;20825;-87
2022/12/25 12:12:53;;;;;;;12.23;9.23;;;14.10;64.40;;;;;;4914235;29;20464;-85
2022/12/25 12:15:28;;;;;;;16.33;11.50;;;14.20;63.80;;;;;;4883312;29;20482;-89
2022/12/25 12:17:55;;;;;;;17.03;12.00;;;14.20;63.60;;;;;;4907976;29;20534;-85
2022/12/25 12:20:31;;;;;;;13.10;10.57;;;14.20;64.00;;;;;;4899832;29;20463;-85
2022/12/25 12:23:00;;;;;;;18.43;12.40;;;14.20;64.00;;;;;;4902140;29;20460;-86
2022/12/25 12:25:29;;;;;;;17.10;10.37;;;14.20;63.90;;;;;;4922150;29;20483;-85
2022/12/25 12:27:59;;;;;;;11.43;8.77;;;14.20;63.90;;;;;;4895498;29;20456;-86
2022/12/25 12:30:30;;;;;;;12.00;7.60;;;14.20;63.90;;;;;;4931707;29;20464;-85
2022/12/25 12:33:00;;;;;;;9.90;6.80;;;14.30;63.90;;;;;;4899057;29;20506;-85
2022/12/25 12:35:30;;;;;;;10.93;7.30;;;14.30;63.60;;;;;;4898681;29;20973;-85
2022/12/25 12:38:01;;;;;;;11.00;7.63;;;14.20;63.40;;;;;;4907586;29;20487;-87
2022/12/25 12:40:33;;;;;;;9.07;6.50;;;14.30;63.50;;;;;;4907906;29;20538;-83
2022/12/25 12:43:01;;;;;;;18.77;9.07;;;14.50;63.60;;;;;;4915921;29;20459;-85
2022/12/25 12:45:32;;;;;;;16.30;9.33;;;14.60;63.50;;;;;;4907563;29;20474;-87
2022/12/25 12:47:59;;;;;;;12.80;7.90;;;14.70;63.30;;;;;;4894378;29;20447;-87
2022/12/25 12:50:30;;;;;;;12.53;8.40;;;14.80;62.80;;;;;;4912916;29;20456;-86
2022/12/25 12:52:57;;;;;;;10.63;8.30;;;14.80;62.60;;;;;;4882020;29;20459;-84
2022/12/25 12:55:29;;;;;;;11.07;8.13;;;14.70;62.80;;;;;;4892452;29;20470;-85
2022/12/25 12:58:00;;;;;;;13.70;7.80;;;14.70;62.80;;;;;;4914547;29;20458;-88
2022/12/25 13:00:36;;;;;;;10.97;7.60;;;14.70;62.90;;;;;;4906048;29;20454;-86
2022/12/25 13:03:27;;;;;;;9.20;7.17;;;14.70;62.80;;;;;;4882848;29;20451;-86
2022/12/25 13:05:59;;;;;;;11.33;8.70;;;14.60;62.90;;;;;;4911022;29;20475;-85
2022/12/25 13:08:37;;;;;;;12.83;7.70;;;14.70;63.20;;;;;;4893372;29;20463;-86
2022/12/25 13:11:13;;;;;;;44.87;23.23;;;14.90;63.20;;;;;;4913731;29;20645;-84
2022/12/25 13:13:43;;;;;;;208.07;67.00;;;15.00;62.80;;;;;;4911496;29;21020;-85
2022/12/25 13:16:24;;;;;;;148.27;51.30;;;15.00;62.50;;;;;;4897088;29;20459;-85
2022/12/25 13:18:54;;;;;;;29.33;16.50;;;15.10;62.40;;;;;;4919668;29;20485;-85
2022/12/25 13:21:24;;;;;;;36.93;16.93;;;15.20;62.40;;;;;;4916000;29;20459;-85
2022/12/25 13:23:57;;;;;;;20.50;13.27;;;15.20;62.20;;;;;;4912469;29;20509;-85
2022/12/25 13:26:24;;;;;;;15.17;9.83;;;15.30;62.20;;;;;;4914083;29;20483;-86
2022/12/25 13:28:54;;;;;;;13.17;9.57;;;15.40;62.10;;;;;;4912169;29;20456;-85
2022/12/25 13:31:24;;;;;;;8.10;7.00;;;15.50;61.50;;;;;;4890659;29;20809;-86
2022/12/25 13:33:57;;;;;;;11.77;6.40;;;15.60;60.90;;;;;;4897082;29;20451;-87
2022/12/25 13:36:26;;;;;;;9.03;6.67;;;15.70;60.80;;;;;;4890070;29;20627;-85
2022/12/25 13:38:56;;;;;;;11.13;6.63;;;15.80;60.70;;;;;;4895280;29;20461;-87
2022/12/25 13:44:19;;;;;;;9.50;6.63;;;15.90;60.10;;;;;;4906390;29;20443;-85
2022/12/25 13:46:46;;;;;;;9.03;6.47;;;15.90;59.90;;;;;;4888526;29;20542;-87
2022/12/25 13:49:18;;;;;;;11.03;6.57;;;15.80;59.80;;;;;;4899581;29;20450;-88
2022/12/25 13:51:45;;;;;;;11.80;8.90;;;15.70;60.00;;;;;;4926265;28;20473;-85
2022/12/25 13:54:14;;;;;;;17.30;10.83;;;15.70;60.20;;;;;;4892056;29;21070;-86
2022/12/25 13:56:48;;;;;;;17.00;10.53;;;15.60;60.20;;;;;;4909825;29;20495;-85
2022/12/25 13:59:19;;;;;;;11.80;9.13;;;15.50;60.30;;;;;;4883408;29;20466;-86
2022/12/25 14:01:47;;;;;;;14.17;9.00;;;15.60;60.60;;;;;;4897514;29;20463;-86
2022/12/25 14:04:16;;;;;;;12.57;9.50;;;15.50;60.70;;;;;;4928227;29;20475;-88
2022/12/25 14:06:43;;;;;;;10.00;7.57;;;15.50;60.80;;;;;;4907556;29;21053;-85
2022/12/25 14:09:12;;;;;;;10.13;8.10;;;15.50;60.90;;;;;;4917073;29;20454;-85
2022/12/25 14:11:41;;;;;;;12.50;7.33;;;15.50;61.00;;;;;;4896947;29;20459;-88
2022/12/25 14:14:16;;;;;;;11.40;8.20;;;15.40;60.90;;;;;;4890676;29;20833;-87
2022/12/25 14:16:47;;;;;;;8.90;6.60;;;15.30;61.00;;;;;;4896333;29;20474;-85
2022/12/25 14:19:25;;;;;;;20.90;12.57;;;14.90;62.20;;;;;;4897291;29;20469;-87
2022/12/25 14:21:56;;;;;;;20.33;12.53;;;14.80;63.30;;;;;;4926216;29;20461;-85
2022/12/25 14:24:26;;;;;;;15.27;11.00;;;14.80;63.30;;;;;;4917562;29;20464;-86
2022/12/25 14:26:59;;;;;;;18.93;11.87;;;14.90;63.10;;;;;;4895042;29;22725;-86
2022/12/25 14:29:29;;;;;;;13.87;11.53;;;15.00;62.90;;;;;;4890164;29;20479;-86
2022/12/25 14:31:59;;;;;;;20.00;12.50;;;15.10;62.80;;;;;;4896746;29;20482;-85
2022/12/25 14:34:28;;;;;;;18.53;12.33;;;15.10;62.70;;;;;;4917764;29;20549;-85